createdAt,value
2018-12-20T00:00:43.354Z,6.80
2018-12-20T00:03:22.710Z,6.47
2018-12-20T00:06:08.126Z,6.93
2018-12-20T00:08:40.608Z,6.90
2018-12-20T00:11:11.419Z,6.50
2018-12-20T00:13:44.728Z,6.80
2018-12-20T00:16:23.930Z,6.50
2018-12-20T00:18:54.238Z,6.90
2018-12-20T00:21:34.840Z,7.80
2018-12-20T00:24:14.544Z,7.80
2018-12-20T00:26:48.052Z,7.47
2018-12-20T00:29:27.634Z,6.60
2018-12-20T00:32:06.636Z,6.93
2018-12-20T00:34:38.081Z,6.93
2018-12-20T00:37:09.208Z,6.90
2018-12-20T00:39:46.998Z,6.77
2018-12-20T00:42:25.952Z,6.60
2018-12-20T00:45:04.796Z,6.57
2018-12-20T00:47:39.832Z,6.73
2018-12-20T00:50:11.158Z,6.43
2018-12-20T00:52:43.237Z,6.57
2018-12-20T00:55:22.882Z,7.13
2018-12-20T00:57:56.315Z,6.37
2018-12-20T01:00:28.159Z,6.80
2018-12-20T01:03:06.730Z,7.33
2018-12-20T01:05:38.106Z,6.80
2018-12-20T01:08:07.969Z,7.57
2018-12-20T01:10:37.813Z,6.30
2018-12-20T01:13:16.677Z,5.93
2018-12-20T01:18:43.213Z,6.47
2018-12-20T01:21:22.275Z,6.10
2018-12-20T01:23:56.201Z,5.93
2018-12-20T01:26:27.395Z,6.03
2018-12-20T01:28:57.252Z,5.60
2018-12-20T01:31:47.289Z,5.43
2018-12-20T01:34:19.317Z,5.97
2018-12-20T01:36:51.272Z,5.70
2018-12-20T01:39:25.304Z,5.53
2018-12-20T01:42:04.000Z,5.30
2018-12-20T01:44:53.328Z,5.17
2018-12-20T01:47:19.769Z,5.17
2018-12-20T01:49:58.286Z,5.10
2018-12-20T01:52:36.300Z,5.00
2018-12-20T01:55:15.479Z,4.90
2018-12-20T01:57:47.512Z,4.80
2018-12-20T02:00:24.275Z,5.53
2018-12-20T02:03:02.351Z,5.20
2018-12-20T02:05:40.317Z,5.43
2018-12-20T02:08:12.754Z,5.30
2018-12-20T02:10:44.028Z,5.50
2018-12-20T02:13:22.953Z,5.70
2018-12-20T02:16:02.723Z,5.73
2018-12-20T02:18:35.426Z,5.23
2018-12-20T02:21:14.188Z,4.90
2018-12-20T02:23:50.249Z,5.03
2018-12-20T02:26:21.699Z,5.33
2018-12-20T02:28:51.550Z,5.40
2018-12-20T02:31:32.406Z,5.40
2018-12-20T02:34:04.342Z,5.27
2018-12-20T02:36:45.209Z,5.20
2018-12-20T02:39:23.154Z,5.13
2018-12-20T02:42:01.660Z,4.70
2018-12-20T02:44:41.651Z,4.93
2018-12-20T02:47:14.149Z,4.93
2018-12-20T02:49:53.722Z,4.60
2018-12-20T02:52:24.962Z,4.70
2018-12-20T02:55:03.724Z,5.70
2018-12-20T02:57:36.220Z,5.73
2018-12-20T03:00:14.693Z,5.20
2018-12-20T03:02:52.403Z,5.47
2018-12-20T03:05:31.326Z,5.47
2018-12-20T03:08:09.366Z,4.87
2018-12-20T03:10:47.328Z,5.17
2018-12-20T03:13:18.551Z,5.20
2018-12-20T03:15:52.926Z,5.60
2018-12-20T03:18:26.737Z,5.13
2018-12-20T03:21:08.852Z,5.27
2018-12-20T03:23:41.520Z,4.67
2018-12-20T03:26:14.425Z,4.97
2018-12-20T03:28:44.106Z,5.80
2018-12-20T03:31:14.318Z,5.37
2018-12-20T03:33:52.911Z,4.77
2018-12-20T03:36:24.514Z,5.43
2018-12-20T03:38:56.403Z,5.57
2018-12-20T03:41:29.638Z,5.33
2018-12-20T03:44:09.436Z,5.40
2018-12-20T03:46:47.191Z,4.47
2018-12-20T03:49:18.447Z,5.30
2018-12-20T03:51:59.945Z,4.70
2018-12-20T03:54:31.330Z,4.40
2018-12-20T03:57:03.338Z,4.77
2018-12-20T03:59:42.427Z,4.87
2018-12-20T04:02:22.326Z,4.50
2018-12-20T04:05:00.526Z,4.50
2018-12-20T04:07:32.775Z,4.50
2018-12-20T04:10:06.707Z,3.93
2018-12-20T04:12:45.409Z,4.10
2018-12-20T04:15:23.629Z,4.40
2018-12-20T04:17:53.370Z,3.93
2018-12-20T04:20:28.944Z,4.10
2018-12-20T04:23:07.822Z,3.80
2018-12-20T04:25:41.787Z,4.43
2018-12-20T04:28:14.306Z,4.00
2018-12-20T04:30:46.437Z,4.73
2018-12-20T04:33:26.187Z,4.63
2018-12-20T04:35:58.594Z,4.30
2018-12-20T04:38:30.984Z,4.43
2018-12-20T04:41:14.268Z,4.50
2018-12-20T04:43:47.627Z,4.50
2018-12-20T04:46:26.507Z,4.43
2018-12-20T04:49:05.525Z,4.40
2018-12-20T04:51:43.778Z,4.67
2018-12-20T04:54:22.662Z,4.20
2018-12-20T04:56:55.557Z,4.77
2018-12-20T04:59:29.764Z,4.70
2018-12-20T05:02:08.652Z,4.37
2018-12-20T05:04:46.884Z,5.50
2018-12-20T05:07:18.274Z,5.00
2018-12-20T05:09:57.384Z,5.47
2018-12-20T05:12:35.983Z,5.30
2018-12-20T05:15:14.206Z,5.70
2018-12-20T05:17:45.204Z,5.37
2018-12-20T05:20:23.124Z,5.47
2018-12-20T05:23:01.650Z,6.03
2018-12-20T05:25:32.936Z,6.20
2018-12-20T05:28:02.841Z,6.33
2018-12-20T05:30:34.137Z,5.87
2018-12-20T05:36:06.784Z,6.07
2018-12-20T05:38:45.313Z,6.27
2018-12-20T05:41:24.350Z,6.20
2018-12-20T05:44:06.127Z,6.00
2018-12-20T05:52:33.060Z,6.00
2018-12-20T05:58:00.804Z,6.10
2018-12-20T06:00:31.986Z,5.97
2018-12-20T06:03:16.271Z,5.70
2018-12-20T06:05:58.506Z,5.30
2018-12-20T06:08:30.643Z,5.83
2018-12-20T06:11:10.477Z,5.63
2018-12-20T06:13:42.024Z,5.40
2018-12-20T06:19:14.107Z,5.83
2018-12-20T06:21:44.120Z,5.40
2018-12-20T06:24:16.355Z,5.50
2018-12-20T06:26:56.368Z,5.00
2018-12-20T06:29:32.936Z,4.67
2018-12-20T06:32:12.081Z,5.10
2018-12-20T06:34:49.952Z,4.60
2018-12-20T06:37:23.103Z,4.70
2018-12-20T06:40:02.819Z,4.80
2018-12-20T06:42:42.536Z,5.00
2018-12-20T06:45:21.662Z,5.10
2018-12-20T06:47:56.758Z,5.03
2018-12-20T06:50:36.953Z,4.90
2018-12-20T06:53:16.106Z,4.90
2018-12-20T06:55:55.924Z,4.70
2018-12-20T07:01:23.849Z,4.33
2018-12-20T07:03:57.741Z,4.67
2018-12-20T07:06:31.801Z,4.17
2018-12-20T07:09:10.895Z,4.33
2018-12-20T07:11:52.885Z,4.30
2018-12-20T07:14:23.630Z,4.23
2018-12-20T07:17:02.523Z,4.13
2018-12-20T07:19:33.408Z,4.43
2018-12-20T07:22:12.197Z,4.67
2018-12-20T07:24:45.746Z,4.60
2018-12-20T07:27:17.074Z,4.40
2018-12-20T07:29:55.875Z,4.43
2018-12-20T07:32:34.790Z,4.53
2018-12-20T07:35:13.812Z,4.70
2018-12-20T07:37:45.324Z,4.57
2018-12-20T07:40:24.922Z,4.00
2018-12-20T07:43:04.162Z,4.00
2018-12-20T07:45:42.184Z,4.00
2018-12-20T07:48:13.545Z,4.70
2018-12-20T07:50:52.659Z,4.70
2018-12-20T07:53:23.691Z,3.80
2018-12-20T07:56:02.529Z,4.40
2018-12-20T07:58:33.878Z,3.73
2018-12-20T08:01:26.508Z,3.33
2018-12-20T08:04:05.082Z,3.30
2018-12-20T08:06:36.225Z,3.10
2018-12-20T08:09:14.466Z,3.27
2018-12-20T08:11:47.721Z,3.20
2018-12-20T08:14:28.368Z,3.17
2018-12-20T08:17:01.358Z,3.07
2018-12-20T08:19:41.036Z,3.03
2018-12-20T08:22:20.186Z,4.37
2018-12-20T08:24:54.172Z,2.80
2018-12-20T08:27:25.533Z,2.60
2018-12-20T08:30:10.854Z,2.30
2018-12-20T08:32:44.118Z,2.30
2018-12-20T08:35:22.938Z,2.63
2018-12-20T08:38:00.954Z,2.60
2018-12-20T08:40:39.670Z,2.20
2018-12-20T08:43:17.829Z,2.47
2018-12-20T08:45:55.752Z,2.43
2018-12-20T08:48:28.278Z,2.50
2018-12-20T08:51:06.774Z,2.13
2018-12-20T08:53:45.795Z,2.40
2018-12-20T08:56:23.806Z,2.00
2018-12-20T08:59:01.807Z,2.43
2018-12-20T09:01:35.715Z,2.33
2018-12-20T09:04:13.930Z,2.20
2018-12-20T09:06:52.075Z,2.20
2018-12-20T09:09:30.069Z,2.20
2018-12-20T09:15:02.222Z,2.33
2018-12-20T09:17:33.371Z,2.47
2018-12-20T09:20:11.322Z,2.00
2018-12-20T09:22:42.752Z,1.93
2018-12-20T09:25:20.672Z,2.07
2018-12-20T09:27:51.918Z,2.60
2018-12-20T09:30:30.670Z,2.40
2018-12-20T09:33:05.387Z,2.37
2018-12-20T09:35:45.420Z,2.67
2018-12-20T09:38:20.503Z,2.30
2018-12-20T09:41:01.091Z,2.30
2018-12-20T09:43:33.902Z,2.30
2018-12-20T09:46:06.094Z,2.13
2018-12-20T09:48:38.272Z,2.10
2018-12-20T09:51:16.904Z,2.17
2018-12-20T09:53:54.824Z,2.10
2018-12-20T09:56:29.750Z,2.30
2018-12-20T09:59:01.907Z,3.00
2018-12-20T10:01:40.508Z,1.87
2018-12-20T10:04:19.570Z,1.90
2018-12-20T10:06:57.535Z,1.97
2018-12-20T10:09:35.685Z,2.30
2018-12-20T10:12:13.773Z,3.30
2018-12-20T10:14:52.815Z,2.23
2018-12-20T10:17:24.349Z,2.30
2018-12-20T10:20:02.132Z,2.83
2018-12-20T10:22:41.280Z,1.97
2018-12-20T10:25:19.220Z,2.53
2018-12-20T10:27:51.601Z,2.67
2018-12-20T10:30:22.662Z,2.43
2018-12-20T10:33:00.455Z,2.40
2018-12-20T10:35:38.569Z,2.40
2018-12-20T10:38:09.751Z,3.43
2018-12-20T10:40:41.792Z,2.10
2018-12-20T10:43:22.255Z,2.17
2018-12-20T10:46:05.468Z,2.17
2018-12-20T10:48:37.757Z,2.37
2018-12-20T10:51:17.332Z,2.23
2018-12-20T10:53:57.691Z,2.30
2018-12-20T10:56:50.830Z,2.13
2018-12-20T10:59:25.837Z,2.20
2018-12-20T11:02:10.535Z,2.43
2018-12-20T11:04:54.492Z,2.57
2018-12-20T11:07:34.365Z,2.00
2018-12-20T11:10:19.467Z,1.90
2018-12-20T11:13:00.917Z,2.10
2018-12-20T11:15:52.394Z,1.80
2018-12-20T11:18:23.576Z,1.70
2018-12-20T11:21:03.510Z,1.80
2018-12-20T11:23:36.927Z,2.00
2018-12-20T11:26:22.540Z,1.77
2018-12-20T11:28:56.240Z,1.60
2018-12-20T11:31:45.049Z,2.10
2018-12-20T11:34:19.059Z,1.63
2018-12-20T11:36:57.985Z,2.00
2018-12-20T11:39:36.098Z,2.00
2018-12-20T11:42:14.202Z,2.07
2018-12-20T11:44:54.039Z,2.30
2018-12-20T11:47:27.306Z,1.70
2018-12-20T11:50:12.431Z,1.80
2018-12-20T11:52:59.346Z,1.60
2018-12-20T11:55:39.675Z,1.70
2018-12-20T11:58:19.723Z,2.30
2018-12-20T12:00:58.797Z,1.63
2018-12-20T12:03:34.807Z,1.80
2018-12-20T12:06:14.875Z,1.80
2018-12-20T12:08:52.862Z,2.00
2018-12-20T12:11:32.742Z,1.70
2018-12-20T12:14:11.550Z,1.60
2018-12-20T12:16:49.703Z,2.70
2018-12-20T12:19:30.372Z,1.90
2018-12-20T12:22:00.808Z,1.70
2018-12-20T12:24:37.543Z,1.37
2018-12-20T12:27:08.818Z,1.80
2018-12-20T12:32:44.274Z,1.40
2018-12-20T12:35:23.898Z,1.90
2018-12-20T12:38:03.860Z,1.63
2018-12-20T12:40:42.258Z,1.20
2018-12-20T12:43:21.382Z,1.97
2018-12-20T12:45:59.387Z,1.40
2018-12-20T12:48:31.629Z,1.40
2018-12-20T12:51:09.452Z,1.53
2018-12-20T12:53:48.696Z,1.57
2018-12-20T12:56:23.863Z,1.50
2018-12-20T12:58:59.070Z,1.40
2018-12-20T13:01:30.106Z,1.70
2018-12-20T13:04:08.956Z,1.50
2018-12-20T13:06:48.026Z,1.40
2018-12-20T13:09:19.694Z,1.63
2018-12-20T13:11:57.780Z,1.50
2018-12-20T13:14:35.867Z,1.60
2018-12-20T13:17:08.365Z,1.50
2018-12-20T13:19:39.375Z,1.67
2018-12-20T13:22:18.182Z,1.60
2018-12-20T13:24:56.285Z,1.77
2018-12-20T13:27:28.594Z,1.63
2018-12-20T13:30:09.336Z,1.60
2018-12-20T13:32:41.838Z,1.87
2018-12-20T13:35:12.751Z,1.90
2018-12-20T13:37:43.897Z,1.50
2018-12-20T13:40:17.918Z,2.13
2018-12-20T13:42:55.887Z,1.80
2018-12-20T13:45:34.914Z,1.63
2018-12-20T13:48:25.896Z,1.80
2018-12-20T13:51:10.411Z,1.80
2018-12-20T13:53:43.006Z,1.60
2018-12-20T13:56:14.162Z,1.90
2018-12-20T13:58:45.237Z,2.10
2018-12-20T14:01:18.255Z,1.90
2018-12-20T14:03:57.242Z,2.27
2018-12-20T14:06:36.208Z,2.30
2018-12-20T14:09:07.964Z,2.00
2018-12-20T14:11:52.659Z,2.27
2018-12-20T14:17:20.018Z,2.10
2018-12-20T14:19:53.015Z,2.27
2018-12-20T14:22:41.912Z,2.80
2018-12-20T14:25:17.053Z,2.37
2018-12-20T14:27:55.892Z,2.53
2018-12-20T14:30:35.034Z,1.77
2018-12-20T14:33:14.054Z,2.27
2018-12-20T14:35:52.976Z,1.80
2018-12-20T14:38:25.368Z,2.00
2018-12-20T14:41:04.250Z,2.33
2018-12-20T14:43:43.414Z,1.80
2018-12-20T14:46:22.478Z,2.20
2018-12-20T14:48:54.643Z,2.70
2018-12-20T14:51:33.650Z,2.13
2018-12-20T14:54:12.567Z,3.57
2018-12-20T14:56:47.422Z,2.10
2018-12-20T14:59:18.698Z,2.07
2018-12-20T15:01:54.625Z,2.03
2018-12-20T15:04:27.155Z,2.03
2018-12-20T15:06:57.958Z,2.67
2018-12-20T15:09:45.255Z,2.10
2018-12-20T15:15:21.439Z,2.27
2018-12-20T15:17:59.638Z,1.90
2018-12-20T15:20:40.722Z,2.47
2018-12-20T15:23:18.748Z,1.90
2018-12-20T15:25:57.923Z,2.60
2018-12-20T15:28:30.540Z,2.87
2018-12-20T15:31:08.408Z,2.23
2018-12-20T15:33:47.265Z,1.97
2018-12-20T15:36:29.887Z,2.50
2018-12-20T15:39:00.535Z,2.47
2018-12-20T15:41:37.254Z,1.97
2018-12-20T15:44:15.166Z,1.90
2018-12-20T15:46:49.134Z,2.50
2018-12-20T15:49:26.859Z,2.10
2018-12-20T15:52:05.808Z,2.23
2018-12-20T15:57:31.358Z,2.00
2018-12-20T16:00:05.338Z,2.10
2018-12-20T16:02:36.537Z,2.30
2018-12-20T16:05:14.309Z,2.10
2018-12-20T16:08:01.808Z,2.47
2018-12-20T16:10:32.709Z,1.97
2018-12-20T16:13:12.421Z,2.70
2018-12-20T16:15:50.406Z,2.57
2018-12-20T16:18:22.721Z,2.50
2018-12-20T16:23:54.250Z,2.13
2018-12-20T16:26:33.498Z,3.13
2018-12-20T16:29:04.647Z,2.10
2018-12-20T16:31:35.598Z,1.70
2018-12-20T16:34:15.502Z,2.00
2018-12-20T16:36:53.939Z,2.23
2018-12-20T16:39:34.395Z,2.90
2018-12-20T16:42:10.346Z,3.80
2018-12-20T16:44:49.361Z,4.80
2018-12-20T16:47:24.324Z,4.03
2018-12-20T16:49:56.708Z,2.87
2018-12-20T16:52:32.631Z,2.67
2018-12-20T16:55:11.668Z,2.33
2018-12-20T16:57:47.536Z,2.23
2018-12-20T17:00:26.446Z,2.73
2018-12-20T17:03:15.896Z,2.83
2018-12-20T17:05:47.154Z,2.60
2018-12-20T17:08:19.354Z,2.70
2018-12-20T17:10:50.491Z,2.37
2018-12-20T17:13:29.508Z,2.30
2018-12-20T17:16:09.574Z,2.40
2018-12-20T17:18:40.530Z,2.60
2018-12-20T17:21:11.483Z,2.33
2018-12-20T17:23:42.537Z,3.00
2018-12-20T17:26:21.210Z,2.80
2018-12-20T17:28:56.226Z,3.07
2018-12-20T17:31:36.995Z,2.77
2018-12-20T17:34:11.092Z,2.83
2018-12-20T17:36:58.424Z,2.73
2018-12-20T17:39:32.294Z,3.00
2018-12-20T17:42:14.968Z,2.60
2018-12-20T17:47:40.670Z,2.73
2018-12-20T17:53:13.214Z,3.00
2018-12-20T17:55:52.199Z,2.90
2018-12-20T17:58:25.563Z,2.80
2018-12-20T18:00:58.650Z,2.73
2018-12-20T18:03:38.259Z,3.03
2018-12-20T18:06:17.059Z,3.30
2018-12-20T18:08:49.595Z,2.93
2018-12-20T18:11:25.398Z,3.10
2018-12-20T18:14:07.010Z,3.13
2018-12-20T18:16:41.452Z,3.20
2018-12-20T18:19:20.454Z,3.30
2018-12-20T18:22:03.074Z,3.23
2018-12-20T18:24:33.822Z,3.97
2018-12-20T18:27:05.894Z,3.33
2018-12-20T18:29:44.976Z,3.03
2018-12-20T18:32:23.923Z,4.00
2018-12-20T18:35:02.821Z,3.63
2018-12-20T18:37:42.184Z,3.30
2018-12-20T18:40:21.204Z,3.57
2018-12-20T18:43:01.724Z,3.40
2018-12-20T18:48:32.152Z,3.60
2018-12-20T18:51:04.815Z,2.97
2018-12-20T18:56:31.482Z,3.33
2018-12-20T18:59:04.770Z,3.50
2018-12-20T19:01:36.838Z,3.80
2018-12-20T19:04:08.833Z,3.33
2018-12-20T19:06:51.510Z,2.90
2018-12-20T19:09:40.019Z,3.67
2018-12-20T19:12:17.748Z,2.70
2018-12-20T19:14:56.770Z,3.43
2018-12-20T19:17:43.838Z,2.87
2018-12-20T19:20:22.811Z,2.93
2018-12-20T19:23:01.548Z,3.13
2018-12-20T19:25:47.108Z,3.30
2018-12-20T19:28:20.115Z,3.20
2018-12-20T19:30:58.826Z,3.53
2018-12-20T19:33:38.152Z,3.57
2018-12-20T19:36:17.369Z,3.43
2018-12-20T19:38:49.721Z,3.33
2018-12-20T19:41:25.410Z,3.27
2018-12-20T19:44:04.356Z,3.00
2018-12-20T19:46:46.894Z,2.93
2018-12-20T19:49:25.353Z,3.27
2018-12-20T19:52:16.581Z,3.23
2018-12-20T19:54:51.510Z,3.37
2018-12-20T19:57:31.476Z,3.40
2018-12-20T20:00:01.111Z,2.70
2018-12-20T20:02:41.829Z,3.07
2018-12-20T20:05:20.778Z,3.40
2018-12-20T20:07:53.091Z,3.10
2018-12-20T20:10:40.386Z,3.27
2018-12-20T20:13:19.271Z,3.00
2018-12-20T20:15:47.475Z,3.60
2018-12-20T20:18:18.647Z,3.50
2018-12-20T20:20:58.386Z,3.83
2018-12-20T20:23:38.502Z,3.40
2018-12-20T20:26:29.782Z,3.50
2018-12-20T20:29:01.913Z,3.17
2018-12-20T20:34:27.148Z,3.13
2018-12-20T20:36:59.269Z,3.40
2018-12-20T20:42:33.505Z,3.13
2018-12-20T20:45:13.656Z,3.03
2018-12-20T20:47:49.934Z,3.83
2018-12-20T20:50:29.156Z,2.97
2018-12-20T20:53:00.762Z,3.17
2018-12-20T20:55:33.846Z,3.07
2018-12-20T20:58:06.063Z,3.23
2018-12-20T21:00:51.463Z,3.23
2018-12-20T21:03:30.866Z,3.47
2018-12-20T21:06:15.367Z,2.83
2018-12-20T21:09:08.812Z,3.00
2018-12-20T21:11:55.313Z,3.30
2018-12-20T21:14:36.535Z,2.80
2018-12-20T21:17:16.658Z,3.00
2018-12-20T21:19:54.856Z,3.07
2018-12-20T21:22:42.929Z,3.10
2018-12-20T21:25:20.800Z,3.23
2018-12-20T21:27:54.910Z,3.50
2018-12-20T21:30:46.730Z,3.17
2018-12-20T21:33:24.668Z,3.17
2018-12-20T21:35:58.764Z,3.10
2018-12-20T21:38:30.886Z,3.20
2018-12-20T21:41:08.757Z,3.43
2018-12-20T21:43:46.754Z,2.83
2018-12-20T21:46:25.751Z,3.47
2018-12-20T21:48:58.194Z,3.20
2018-12-20T21:51:31.998Z,3.67
2018-12-20T21:54:10.166Z,3.60
2018-12-20T21:56:49.409Z,3.00
2018-12-20T21:59:28.340Z,2.90
2018-12-20T22:02:15.247Z,3.23
2018-12-20T22:04:59.423Z,3.40
2018-12-20T22:07:33.838Z,3.27
2018-12-20T22:10:13.039Z,3.50
2018-12-20T22:12:49.094Z,3.17
2018-12-20T22:15:28.374Z,3.23
2018-12-20T22:18:01.130Z,3.20
2018-12-20T22:20:35.201Z,3.40
2018-12-20T22:23:14.150Z,3.23
2018-12-20T22:26:03.113Z,3.37
2018-12-20T22:28:36.434Z,3.10
2018-12-20T22:31:22.215Z,2.70
2018-12-20T22:33:58.554Z,2.93
2018-12-20T22:42:19.458Z,2.97
2018-12-20T22:44:59.201Z,3.30
2018-12-20T22:47:31.772Z,2.70
2018-12-20T22:50:06.571Z,2.57
2018-12-20T22:52:37.414Z,2.80
2018-12-20T22:55:17.153Z,3.20
2018-12-20T22:57:49.542Z,3.10
2018-12-20T23:00:20.591Z,2.80
2018-12-20T23:03:00.294Z,3.07
2018-12-20T23:05:39.455Z,2.70
2018-12-20T23:08:20.822Z,2.90
2018-12-20T23:10:51.553Z,2.77
2018-12-20T23:13:23.522Z,3.07
2018-12-20T23:15:55.814Z,2.90
2018-12-20T23:18:27.856Z,2.60
2018-12-20T23:21:05.379Z,2.90
2018-12-20T23:23:44.708Z,2.83
2018-12-20T23:26:16.895Z,2.43
2018-12-20T23:28:53.495Z,2.40
2018-12-20T23:31:44.513Z,2.40
2018-12-20T23:34:18.431Z,2.70
2018-12-20T23:36:50.933Z,3.27
2018-12-20T23:39:21.858Z,2.70
2018-12-20T23:42:00.875Z,2.53
2018-12-20T23:44:34.406Z,2.40
2018-12-20T23:47:06.478Z,2.80
2018-12-20T23:49:53.620Z,2.87
2018-12-20T23:52:31.462Z,2.73
2018-12-20T23:55:09.366Z,2.50
